createdAt,value
2023-02-11T00:02:27.820Z,47.27
2023-02-11T00:04:56.084Z,47.27
2023-02-11T00:07:24.334Z,47.53
2023-02-11T00:09:52.614Z,47.63
2023-02-11T00:16:44.710Z,47.11
2023-02-11T00:21:41.222Z,46.77
2023-02-11T00:26:37.776Z,46.49
2023-02-11T00:29:06.001Z,46.28
2023-02-11T00:34:02.580Z,46.74
2023-02-11T00:36:30.855Z,46.87
2023-02-11T00:38:59.250Z,47.2
2023-02-11T00:43:55.703Z,47.07
2023-02-11T00:53:49.013Z,46.89
2023-02-11T00:56:17.103Z,47.02
2023-02-11T00:58:45.378Z,47.07
2023-02-11T01:01:13.681Z,47.19
2023-02-11T01:03:41.876Z,46.9
2023-02-11T01:06:10.171Z,46.78
2023-02-11T01:08:38.514Z,46.94
2023-02-11T01:17:58.807Z,46.56
2023-02-11T01:20:27.057Z,46.66
2023-02-11T01:25:23.616Z,46.77
2023-02-11T01:27:51.963Z,46.69
2023-02-11T01:32:48.422Z,46.53
2023-02-11T01:35:16.726Z,46.08
2023-02-11T01:42:41.545Z,46.63
2023-02-11T01:45:09.828Z,46.39
2023-02-11T01:47:38.143Z,46.14
2023-02-11T01:52:34.662Z,45.95
2023-02-11T01:55:03.037Z,46.22
2023-02-11T01:57:31.238Z,46.11
2023-02-11T01:59:59.497Z,46.15
2023-02-11T02:02:27.737Z,46.01
2023-02-11T02:04:56.082Z,46.04
2023-02-11T02:07:24.282Z,46.33
2023-02-11T02:12:20.841Z,46.62
2023-02-11T02:14:49.141Z,46.3
2023-02-11T02:17:17.385Z,46.41
2023-02-11T02:19:45.732Z,46.62
2023-02-11T02:22:13.941Z,46.77
2023-02-11T02:24:42.211Z,46.34
2023-02-11T02:27:10.515Z,46.17
2023-02-11T02:32:07.026Z,45.73
2023-02-11T02:34:35.330Z,45.73
2023-02-11T02:37:03.594Z,45.69
2023-02-11T02:39:31.890Z,45.69
2023-02-11T02:44:28.421Z,45.76
2023-02-11T02:51:53.322Z,45.81
2023-02-11T02:54:21.479Z,45.69
2023-02-11T02:56:49.815Z,45.76
2023-02-11T02:59:18.068Z,45.51
2023-02-11T03:01:46.350Z,45.36
2023-02-11T03:04:14.669Z,45.41
2023-02-11T03:11:06.712Z,45.67
2023-02-11T03:13:34.970Z,45.96
2023-02-11T03:16:03.263Z,46.2
2023-02-11T03:18:31.510Z,45.99
2023-02-11T03:20:59.770Z,45.82
2023-02-11T03:23:28.063Z,45.96
2023-02-11T03:25:56.354Z,45.96
2023-02-11T03:30:52.972Z,46.48
2023-02-11T03:33:21.147Z,46.61
2023-02-11T03:35:49.726Z,46.48
2023-02-11T03:38:17.705Z,46.41
2023-02-11T03:40:46.058Z,46.5
2023-02-11T03:43:14.277Z,46.76
2023-02-11T03:45:42.582Z,46.47
2023-02-11T03:50:39.097Z,46.46
2023-02-11T03:53:07.394Z,46.44
2023-02-11T03:58:03.927Z,46.52
2023-02-11T04:03:00.521Z,46.56
2023-02-11T04:05:28.748Z,46.52
2023-02-11T04:10:25.314Z,46.95
2023-02-11T04:15:21.841Z,47.07
2023-02-11T04:17:50.124Z,47
2023-02-11T04:20:18.407Z,47.07
2023-02-11T04:22:46.670Z,47.18
2023-02-11T04:25:14.997Z,46.72
2023-02-11T04:29:38.767Z,47.03
2023-02-11T04:32:07.123Z,47.04
2023-02-11T04:34:35.323Z,46.66
2023-02-11T04:37:03.571Z,47.43
2023-02-11T04:39:31.839Z,47.09
2023-02-11T04:42:00.205Z,46.78
2023-02-11T04:44:28.392Z,47.02
2023-02-11T04:49:24.949Z,47.21
2023-02-11T04:51:53.219Z,47.51
2023-02-11T04:54:21.497Z,47.22
2023-02-11T04:56:49.737Z,47.77
2023-02-11T04:59:18.067Z,46.88
2023-02-11T05:01:46.320Z,47.66
2023-02-11T05:04:14.632Z,47.44
2023-02-11T05:09:11.132Z,47.26
2023-02-11T05:11:39.413Z,47.25
2023-02-11T05:14:07.722Z,46.79
2023-02-11T05:16:35.986Z,46.88
2023-02-11T05:19:04.267Z,46.93
2023-02-11T05:21:32.493Z,46.75
2023-02-11T05:24:00.776Z,46.58
2023-02-11T05:28:57.354Z,46.87
2023-02-11T05:33:53.891Z,46.9
2023-02-11T05:36:22.209Z,47.35
2023-02-11T05:38:50.578Z,47.58
2023-02-11T05:43:47.063Z,47.56
2023-02-11T05:48:10.803Z,47.6
2023-02-11T05:50:39.103Z,47.65
2023-02-11T05:53:07.325Z,47.42
2023-02-11T05:55:35.596Z,47.53
2023-02-11T05:58:03.877Z,47.91
2023-02-11T06:00:32.200Z,47.69
2023-02-11T06:03:00.502Z,47.44
2023-02-11T06:07:56.988Z,47.44
2023-02-11T06:10:25.293Z,47.28
2023-02-11T06:12:53.513Z,47.31
2023-02-11T06:15:21.804Z,47.58
2023-02-11T06:17:50.082Z,47.57
2023-02-11T06:20:18.342Z,47.36
2023-02-11T06:22:46.654Z,47.86
2023-02-11T06:27:43.196Z,47.81
2023-02-11T06:30:11.445Z,47.82
2023-02-11T06:32:44.167Z,47.46
2023-02-11T06:35:10.022Z,47.21
2023-02-11T06:37:36.263Z,47.34
2023-02-11T06:40:04.659Z,47.2
2023-02-11T06:42:32.831Z,46.9
2023-02-11T06:47:29.382Z,46.63
2023-02-11T06:49:57.689Z,46.86
2023-02-11T06:52:26.040Z,47.17
2023-02-11T06:56:49.758Z,48.63
2023-02-11T06:59:17.960Z,49.12
2023-02-11T07:01:46.358Z,49.01
2023-02-11T07:06:42.831Z,49.06
2023-02-11T07:09:11.106Z,48.73
2023-02-11T07:14:07.662Z,47.78
2023-02-11T07:16:36.000Z,47.79
2023-02-11T07:19:04.229Z,47.65
2023-02-11T07:21:32.502Z,47.77
2023-02-11T07:26:29.103Z,47.46
2023-02-11T07:28:57.296Z,47.61
2023-02-11T07:31:25.749Z,47.28
2023-02-11T07:36:22.136Z,47.4
2023-02-11T07:38:50.411Z,47.19
2023-02-11T07:41:18.702Z,47.33
2023-02-11T07:46:15.303Z,48.08
2023-02-11T07:48:43.513Z,48.18
2023-02-11T07:51:11.803Z,47.78
2023-02-11T07:53:40.065Z,48.22
2023-02-11T07:56:08.325Z,48.45
2023-02-11T07:58:36.602Z,48.83
2023-02-11T08:05:28.679Z,48.81
2023-02-11T08:07:56.983Z,49.05
2023-02-11T08:10:25.199Z,49.16
2023-02-11T08:12:53.479Z,48.67
2023-02-11T08:15:21.812Z,49.13
2023-02-11T08:17:50.056Z,50.06
2023-02-11T08:25:14.970Z,48.41
2023-02-11T08:27:43.190Z,47.82
2023-02-11T08:30:11.473Z,47.78
2023-02-11T08:32:39.685Z,46.71
2023-02-11T08:35:07.983Z,46.42
2023-02-11T08:40:04.518Z,45.86
2023-02-11T08:45:01.089Z,46.2
2023-02-11T08:47:29.347Z,47.33
2023-02-11T08:49:57.698Z,48.42
2023-02-11T08:52:25.900Z,48.41
2023-02-11T08:54:54.185Z,48.54
2023-02-11T08:57:22.462Z,48.7
2023-02-11T08:59:50.706Z,49
2023-02-11T09:04:47.305Z,49.85
2023-02-11T09:07:15.558Z,50.2
2023-02-11T09:09:43.808Z,49.95
2023-02-11T09:12:12.109Z,49.96
2023-02-11T09:14:40.353Z,49.79
2023-02-11T09:17:08.712Z,49.67
2023-02-11T09:19:36.938Z,48.5
2023-02-11T09:24:33.500Z,50.47
2023-02-11T09:27:01.781Z,50.34
2023-02-11T09:29:30.071Z,50.83
2023-02-11T09:34:26.585Z,50.75
2023-02-11T09:36:54.879Z,49.95
2023-02-11T09:39:23.121Z,49.88
2023-02-11T09:44:19.735Z,49.06
2023-02-11T09:49:16.275Z,50.13
2023-02-11T09:51:44.511Z,49.77
2023-02-11T09:54:12.787Z,49.88
2023-02-11T09:56:41.069Z,50.38
2023-02-11T09:59:09.327Z,50.19
2023-02-11T10:06:01.459Z,49.12
2023-02-11T10:08:29.686Z,48.83
2023-02-11T10:10:57.976Z,48.74
2023-02-11T10:13:26.257Z,48.51
2023-02-11T10:15:54.501Z,47.55
2023-02-11T10:18:22.802Z,48.09
2023-02-11T10:23:19.359Z,48.49
2023-02-11T10:25:47.621Z,48.62
2023-02-11T10:28:15.968Z,48.78
2023-02-11T10:30:44.238Z,48.79
2023-02-11T10:35:40.716Z,48.75
2023-02-11T10:38:08.971Z,48.29
2023-02-11T10:45:33.857Z,48.5
2023-02-11T10:48:02.115Z,48.45
2023-02-11T10:52:58.650Z,47.65
2023-02-11T10:55:26.930Z,47.48
2023-02-11T10:57:55.237Z,47.46
2023-02-11T11:07:15.585Z,47.66
2023-02-11T11:09:43.819Z,47.54
2023-02-11T11:14:40.351Z,47.29
2023-02-11T11:17:08.620Z,47.09
2023-02-11T11:22:05.235Z,46.99
2023-02-11T11:24:33.442Z,46.72
2023-02-11T11:27:01.771Z,46.31
2023-02-11T11:34:26.852Z,45.28
2023-02-11T11:36:54.869Z,45.25
2023-02-11T11:41:51.412Z,44.88
2023-02-11T11:44:19.673Z,44.72
2023-02-11T11:46:47.970Z,44.7
2023-02-11T11:49:16.234Z,44.65
2023-02-11T11:51:44.505Z,44.62
2023-02-11T11:54:12.754Z,44.52
2023-02-11T11:56:41.041Z,44.85
2023-02-11T12:01:37.633Z,44.67
2023-02-11T12:06:34.149Z,44.75
2023-02-11T12:09:02.473Z,44.75
2023-02-11T12:11:30.692Z,44.78
2023-02-11T12:15:54.470Z,44.51
2023-02-11T12:20:51.365Z,44.56
2023-02-11T12:23:19.290Z,44.77
2023-02-11T12:25:47.612Z,44.64
2023-02-11T12:28:15.947Z,44.65
2023-02-11T12:30:44.221Z,44.74
2023-02-11T12:33:12.379Z,44.5
2023-02-11T12:35:40.685Z,44.36
2023-02-11T12:40:37.260Z,44.38
2023-02-11T12:43:05.524Z,44.37
2023-02-11T12:45:33.805Z,44.42
2023-02-11T12:48:02.079Z,44.33
2023-02-11T12:52:58.692Z,44.39
2023-02-11T12:55:26.916Z,44.55
2023-02-11T13:00:23.478Z,44
2023-02-11T13:02:51.742Z,44.22
2023-02-11T13:05:20.033Z,44.54
2023-02-11T13:07:48.279Z,44.58
2023-02-11T13:10:16.615Z,44.81
2023-02-11T13:12:44.842Z,45.02
2023-02-11T13:19:36.890Z,45.13
2023-02-11T13:22:05.168Z,45.03
2023-02-11T13:24:33.464Z,45.17
2023-02-11T13:27:01.787Z,45.06
2023-02-11T13:29:29.994Z,45.1
2023-02-11T13:31:58.316Z,45.26
2023-02-11T13:34:26.600Z,45.31
2023-02-11T13:39:23.249Z,45.35
2023-02-11T13:41:52.802Z,45.51
2023-02-11T13:44:19.628Z,45.9
2023-02-11T13:46:47.929Z,46.01
2023-02-11T13:49:16.224Z,46.2
2023-02-11T13:51:44.496Z,46.18
2023-02-11T13:54:12.754Z,46.41
2023-02-11T13:59:09.290Z,46.75
2023-02-11T14:01:37.666Z,46.83
2023-02-11T14:04:05.836Z,47.29
2023-02-11T14:09:02.404Z,47.38
2023-02-11T14:11:30.664Z,47.49
2023-02-11T14:13:58.916Z,47.6
2023-02-11T14:18:55.508Z,47.41
2023-02-11T14:21:23.799Z,47.38
2023-02-11T14:23:52.038Z,47.54
2023-02-11T14:26:20.378Z,47.82
2023-02-11T14:28:48.607Z,47.68
2023-02-11T14:31:16.958Z,47.79
2023-02-11T14:40:37.195Z,48.53
2023-02-11T14:43:05.478Z,48.66
2023-02-11T14:45:33.773Z,48.6
2023-02-11T14:48:02.036Z,48.88
2023-02-11T14:50:30.302Z,49.08
2023-02-11T14:52:58.598Z,49.12
2023-02-11T14:57:55.215Z,49.21
2023-02-11T15:07:48.506Z,49.66
2023-02-11T15:10:16.553Z,50.35
2023-02-11T15:12:44.839Z,50.58
2023-02-11T15:17:41.353Z,50.17
2023-02-11T15:20:09.605Z,50.8
2023-02-11T15:22:38.035Z,50.98
2023-02-11T15:25:06.309Z,51.2
2023-02-11T15:27:34.423Z,50.89
2023-02-11T15:31:58.339Z,51.13
2023-02-11T15:36:54.777Z,50.99
2023-02-11T15:39:23.049Z,50.4
2023-02-11T15:46:47.954Z,50.74
2023-02-11T15:49:16.448Z,50.59
2023-02-11T15:51:44.472Z,50.7
2023-02-11T15:56:41.003Z,51.23
2023-02-11T15:59:09.272Z,51.33
2023-02-11T16:01:37.620Z,51.67
2023-02-11T16:11:30.662Z,51.36
2023-02-11T16:16:27.282Z,51.35
2023-02-11T16:19:04.141Z,51.73
2023-02-11T16:21:23.785Z,51.78
2023-02-11T16:26:20.301Z,52.32
2023-02-11T16:28:48.586Z,52.64
2023-02-11T16:31:17.093Z,53.22
2023-02-11T16:33:45.144Z,53.65
2023-02-11T16:38:08.928Z,54.01
2023-02-11T16:40:37.192Z,53.8
2023-02-11T16:43:05.458Z,53.77
2023-02-11T16:45:33.830Z,53.42
2023-02-11T16:48:02.026Z,53.8
2023-02-11T16:50:30.296Z,53.39
2023-02-11T16:55:26.862Z,53.16
2023-02-11T16:57:55.101Z,53.29
2023-02-11T17:00:23.485Z,53.43
2023-02-11T17:02:51.747Z,53.2
2023-02-11T17:05:19.925Z,53.44
2023-02-11T17:07:48.201Z,52.58
2023-02-11T17:10:16.462Z,52.25
2023-02-11T17:15:13.049Z,52.69
2023-02-11T17:17:41.297Z,53.59
2023-02-11T17:20:09.597Z,53.79
2023-02-11T17:22:37.893Z,54.39
2023-02-11T17:25:06.118Z,54.25
2023-02-11T17:27:34.432Z,55.05
2023-02-11T17:30:02.714Z,55.02
2023-02-11T17:34:59.256Z,55.7
2023-02-11T17:39:23.133Z,55.99
2023-02-11T17:41:51.297Z,55.22
2023-02-11T17:46:47.851Z,55.81
2023-02-11T17:49:16.158Z,55.79
2023-02-11T17:54:12.644Z,55.55
2023-02-11T17:56:40.970Z,55.4
2023-02-11T17:59:09.329Z,54.77
2023-02-11T18:01:37.510Z,54.96
2023-02-11T18:04:05.735Z,55
2023-02-11T18:06:34.057Z,55.17
2023-02-11T18:09:02.360Z,55.31
2023-02-11T18:11:30.601Z,55.29
2023-02-11T18:16:27.160Z,55.38
2023-02-11T18:18:55.452Z,55.49
2023-02-11T18:23:52.008Z,55.75
2023-02-11T18:26:20.250Z,55.56
2023-02-11T18:28:48.538Z,55.2
2023-02-11T18:33:45.097Z,55.38
2023-02-11T18:36:13.396Z,55
2023-02-11T18:38:41.630Z,55.23
2023-02-11T18:41:09.904Z,55.56
2023-02-11T18:43:38.187Z,55.16
2023-02-11T18:48:01.986Z,55.66
2023-02-11T18:52:58.519Z,55.4
2023-02-11T18:55:26.835Z,55.29
2023-02-11T18:57:55.057Z,55.18
2023-02-11T19:00:23.355Z,55.31
2023-02-11T19:02:51.643Z,55.5
2023-02-11T19:05:19.905Z,55.87
2023-02-11T19:07:48.193Z,55.69
2023-02-11T19:12:44.740Z,55.99
2023-02-11T19:15:13.001Z,55.81
2023-02-11T19:17:41.275Z,55.96
2023-02-11T19:25:06.121Z,56.1
2023-02-11T19:27:34.392Z,55.75
2023-02-11T19:32:30.932Z,56.01
2023-02-11T19:34:59.209Z,56.32
2023-02-11T19:37:27.471Z,55.7
2023-02-11T19:39:55.836Z,55.46
2023-02-11T19:42:26.536Z,56.24
2023-02-11T19:44:52.339Z,56.38
2023-02-11T19:47:20.662Z,56.39
2023-02-11T19:52:17.122Z,56.29
2023-02-11T19:54:45.452Z,56.21
2023-02-11T19:59:41.988Z,56.48
2023-02-11T20:02:10.344Z,56.26
2023-02-11T20:04:38.529Z,56.13
2023-02-11T20:07:06.799Z,56.48
2023-02-11T20:12:03.376Z,56.6
2023-02-11T20:14:31.582Z,56.71
2023-02-11T20:16:59.881Z,56.83
2023-02-11T20:21:56.476Z,56.67
2023-02-11T20:24:24.739Z,56.69
2023-02-11T20:31:49.689Z,57.19
2023-02-11T20:34:18.075Z,57.41
2023-02-11T20:38:41.617Z,57.31
2023-02-11T20:46:06.469Z,57.65
2023-02-11T20:51:03.045Z,57.32
2023-02-11T20:53:31.226Z,56.99
2023-02-11T20:55:59.508Z,56.89
2023-02-11T21:00:56.102Z,56.75
2023-02-11T21:03:24.396Z,56.56
2023-02-11T21:05:52.653Z,56.89
2023-02-11T21:10:49.205Z,57.13
2023-02-11T21:13:17.496Z,57.01
2023-02-11T21:15:45.751Z,57.03
2023-02-11T21:18:14.023Z,56.99
2023-02-11T21:20:42.300Z,56.59
2023-02-11T21:23:10.576Z,55.6
2023-02-11T21:25:38.864Z,56.2
2023-02-11T21:30:35.486Z,56.11
2023-02-11T21:33:03.677Z,55.54
2023-02-11T21:35:31.910Z,55.57
2023-02-11T21:38:00.181Z,56.08
2023-02-11T21:40:28.490Z,55.96
2023-02-11T21:42:56.767Z,55.67
2023-02-11T21:45:25.039Z,55.07
2023-02-11T21:50:21.597Z,53.71
2023-02-11T21:52:49.863Z,54.18
2023-02-11T21:55:18.132Z,53.75
2023-02-11T21:57:46.416Z,53.98
2023-02-11T22:05:11.257Z,53.54
2023-02-11T22:12:36.068Z,54.24
2023-02-11T22:15:04.337Z,54.1
2023-02-11T22:17:32.645Z,54.02
2023-02-11T22:21:56.400Z,54.29
2023-02-11T22:24:24.677Z,53.8
2023-02-11T22:29:21.216Z,54.62
2023-02-11T22:31:49.507Z,54.85
2023-02-11T22:34:17.778Z,54.2
2023-02-11T22:39:14.330Z,53.96
2023-02-11T22:41:42.617Z,53.95
2023-02-11T22:44:10.876Z,53.83
2023-02-11T22:49:07.440Z,53.83
2023-02-11T22:51:35.677Z,54.3
2023-02-11T22:54:04.058Z,54.23
2023-02-11T22:56:32.295Z,54.24
2023-02-11T22:59:00.539Z,54.68
2023-02-11T23:01:28.851Z,54.38
2023-02-11T23:03:57.069Z,54.13
2023-02-11T23:08:53.672Z,54.76
2023-02-11T23:11:21.919Z,54.47
2023-02-11T23:13:50.197Z,54.9
2023-02-11T23:16:18.509Z,54.64
2023-02-11T23:18:46.754Z,54.48
2023-02-11T23:21:14.994Z,54.5
2023-02-11T23:23:43.295Z,54.77
2023-02-11T23:28:39.869Z,54.53
2023-02-11T23:31:08.215Z,54.64
2023-02-11T23:36:04.700Z,54.57
2023-02-11T23:38:32.935Z,54.68
2023-02-11T23:41:01.210Z,54.63
2023-02-11T23:43:29.487Z,54.52
2023-02-11T23:48:26.097Z,54.73
2023-02-11T23:50:54.362Z,54.56
2023-02-11T23:53:22.622Z,54.85
2023-02-11T23:55:50.881Z,54.74
2023-02-11T23:58:19.178Z,55.16
